D2038 Weather Reports


Display with metric or nautical units.
time (UTC)temp
F
wind
direction
speed
MPH
gust
MPH
rain 1hr
in
rain 24hr
in
rain mn
in
humidity
%
barometer
mb
20220928005224 82 18 1.0 2.0 0.00 0.00 0.00 37 1017.4
20220928004224 83 24 1.0 3.0 0.00 0.00 0.00 36 1017.3
20220928002725 85 0 1.0 3.0 0.00 0.00 0.00 36 1017.2
20220928001725 86 38 0.0 3.0 0.00 0.00 0.00 35 1017.1
20220928000724 87 44 2.0 5.0 0.00 0.00 0.00 33 1017.0
20220927235222 88 25 1.0 5.0 0.00 0.00 0.00 33 1016.9
20220927234222 89 0 3.0 5.0 0.00 0.00 0.00 32 1016.9
20220927233723 90 39 1.0 2.0 0.00 0.00 0.00 33 1016.8
20220927232222 90 39 1.0 2.0 0.00 0.00 0.00 32 1016.8
20220927231222 90 39 1.0 4.0 0.00 0.00 0.00 32 1016.9
20220927230220 91 0 2.0 4.0 0.00 0.00 0.00 29 1016.8
20220927225721 91 61 1.0 3.0 0.00 0.00 0.00 32 1016.9
20220927224219 92 203 1.0 4.0 0.00 0.00 0.00 30 1016.8
20220927223722 92 120 1.0 4.0 0.00 0.00 0.00 30 1016.8
20220927222220 92 7 1.0 4.0 0.00 0.00 0.00 30 1016.7
20220927221221 92 348 1.0 5.0 0.00 0.00 0.00 37 1016.8
20220927220220 92 0 2.0 5.0 0.00 0.00 0.00 30 1016.7
20220927215220 93 51 2.0 4.0 0.00 0.00 0.00 30 1016.7
20220927213719 92 178 2.0 4.0 0.00 0.00 0.00 33 1016.8
20220927212719 92 13 1.0 4.0 0.00 0.00 0.00 31 1016.9
20220927211218 92 32 2.0 9.0 0.00 0.00 0.00 30 1016.9
20220927210218 93 0 2.0 5.0 0.00 0.00 0.00 31 1016.9
20220927205718 92 31 2.0 4.0 0.00 0.00 0.00 30 1017.0
20220927204219 92 324 3.0 5.0 0.00 0.00 0.00 32 1017.1
20220927203718 92 172 1.0 3.0 0.00 0.00 0.00 30 1017.1
20220927202218 91 13 2.0 6.0 0.00 0.00 0.00 31 1017.3
20220927201718 90 69 1.0 6.0 0.00 0.00 0.00 31 1017.4
20220927200217 91 357 4.0 9.0 0.00 0.00 0.00 29 1017.5
20220927195717 90 56 1.0 5.0 0.00 0.00 0.00 31 1017.6
20220927194215 90 99 2.0 6.0 0.00 0.00 0.00 30 1017.9
20220927193215 89 89 2.0 6.0 0.00 0.00 0.00 30 1017.8
20220927192216 90 0 1.0 6.0 0.00 0.00 0.00 31 1018.1
20220927191216 90 104 2.0 4.0 0.00 0.00 0.00 32 1018.3
20220927190215 89 76 1.0 4.0 0.00 0.00 0.00 32 1018.4
20220927185214 89 0 3.0 6.0 0.00 0.00 0.00 30 1018.5
20220927184715 89 166 2.0 10.0 0.00 0.00 0.00 31 1018.7
20220927183215 89 61 2.0 6.0 0.00 0.00 0.00 31 1018.8
20220927182715 89 10 2.0 6.0 0.00 0.00 0.00 33 1018.9
20220927181213 88 61 3.0 5.0 0.00 0.00 0.00 32 1019.0
20220927180213 88 3 2.0 6.0 0.00 0.00 0.00 36 1019.1
20220927175215 87 85 1.0 4.0 0.00 0.00 0.00 35 1019.1
20220927174219 87 355 4.0 10.0 0.00 0.00 0.00 34 1019.3
20220927174213 87 168 2.0 6.0 0.00 0.00 0.00 35 1019.2
20220927172212 87 93 2.0 5.0 0.00 0.00 0.00 37 1019.4
20220927171453 86 10 2.0 5.0 0.00 0.00 0.00 35 1019.6
20220927165712 86 99 2.0 5.0 0.00 0.00 0.00 36 1019.7
20220927164713 86 16 2.0 7.0 0.00 0.00 0.00 35 1019.6
20220927163215 86 0 2.0 5.0 0.00 0.00 0.00 36 1019.7
20220927163211 86 79 3.0 6.0 0.00 0.00 0.00 36 1019.8
20220927161210 85 66 2.0 6.0 0.00 0.00 0.00 36 1019.8
20220927160202 85 65 2.0 5.0 0.00 0.00 0.00 38 1019.8
20220927155203 85 21 2.0 4.0 0.00 0.00 0.00 40 1019.8
20220927154703 83 343 1.0 5.0 0.00 0.00 0.00 41 1019.8
20220927153202 83 65 2.0 6.0 0.00 0.00 0.00 43 1019.8
20220927152703 82 21 2.0 4.0 0.00 0.00 0.00 43 1019.7
20220927151202 80 103 2.0 6.0 0.00 0.00 0.00 47 1019.7
20220927150207 78 25 1.0 4.0 0.00 0.00 0.00 52 1019.5
20220927150203 80 18 2.0 6.0 0.00 0.00 0.00 51 1019.7
20220927144201 76 44 2.0 5.0 0.00 0.00 0.00 54 1019.4
20220927143704 75 8 2.0 4.0 0.00 0.00 0.00 56 1019.2
20220927142703 74 48 2.0 6.0 0.00 0.00 0.00 57 1019.1
20220927141704 72 23 1.0 4.0 0.00 0.00 0.00 61 1019.1
20220927140703 70 14 2.0 6.0 0.00 0.00 0.00 63 1019.0
20220927135206 65 16 2.0 4.0 0.00 0.00 0.00 68 1018.9
20220927135202 67 14 1.0 3.0 0.00 0.00 0.00 66 1018.9
20220927133203 64 17 2.0 4.0 0.00 0.00 0.00 70 1018.8
20220927132203 63 7 1.0 3.0 0.00 0.00 0.00 72 1018.7
20220927131203 62 18 0.0 2.0 0.00 0.00 0.00 73 1018.6
20220927130704 62 18 0.0 1.0 0.00 0.00 0.00 73 1018.4
20220927125203 62 18 0.0 1.0 0.00 0.00 0.00 72 1018.4
20220927123702 62 20 0.0 2.0 0.00 0.00 0.00 72 1018.1
20220927122704 62 20 0.0 1.0 0.00 0.00 0.00 71 1018.1
20220927121704 62 20 0.0 2.0 0.00 0.00 0.00 70 1018.1
20220927120203 62 20 0.0 3.0 0.00 0.00 0.00 70 1018.0
20220927115202 62 20 1.0 3.0 0.00 0.00 0.00 70 1017.9
20220927114203 62 13 0.0 2.0 0.00 0.00 0.00 70 1017.8
20220927113203 62 13 1.0 2.0 0.00 0.00 0.00 70 1017.6
20220927112202 63 13 1.0 2.0 0.00 0.00 0.00 70 1017.5
20220927111449 63 13 1.0 2.0 0.00 0.00 0.00 70 1017.2
20220927105203 63 13 0.0 3.0 0.00 0.00 0.00 70 1017.1
20220927104203 63 17 1.0 3.0 0.00 0.00 0.00 71 1017.1
20220927102202 63 16 0.0 2.0 0.00 0.00 0.00 71 1017.0
20220927101202 63 16 0.0 2.0 0.00 0.00 0.00 72 1016.9
20220927100203 62 16 0.0 2.0 0.00 0.00 0.00 72 1016.9
20220927095201 63 16 0.0 1.0 0.00 0.00 0.00 72 1016.8
20220927094705 63 16 0.0 1.0 0.00 0.00 0.00 71 1016.9
20220927093702 63 16 0.0 1.0 0.00 0.00 0.00 70 1016.8
20220927092701 63 16 0.0 1.0 0.00 0.00 0.00 70 1016.7
20220927091200 64 16 0.0 1.0 0.00 0.00 0.00 69 1016.8
20220927090201 64 16 0.0 1.0 0.00 0.00 0.00 69 1016.7
20220927085701 64 16 0.0 0.0 0.00 0.00 0.00 69 1016.7
20220927085441 65 16 0.0 1.0 0.00 0.00 0.00 67 1016.7
20220927083159 65 16 0.0 1.0 0.00 0.00 0.00 66 1016.8
20220927082204 65 16 0.0 1.0 0.00 0.00 0.00 65 1016.9
20220927082159 65 16 0.0 1.0 0.00 0.00 0.00 65 1017.0
20220927080659 65 16 0.0 1.0 0.00 0.00 0.00 64 1017.0
20220927075159 66 16 0.0 1.0 0.00 0.00 0.00 63 1016.9
20220927074658 66 16 0.0 1.0 0.00 0.00 0.00 62 1017.0
20220927073200 67 16 0.0 1.0 0.00 0.00 0.00 62 1017.0
20220927072158 68 16 0.0 0.0 0.00 0.00 0.00 61 1017.0
20220927071158 68 16 0.0 1.0 0.00 0.00 0.00 61 1017.0
20220927070159 69 16 0.0 1.0 0.00 0.00 0.00 60 1016.9
20220927065700 69 16 0.0 2.0 0.00 0.00 0.00 60 1017.0
20220927064156 70 16 0.0 1.0 0.00 0.00 0.00 59 1017.1
20220927063203 71 16 0.0 1.0 0.00 0.00 0.00 57 1017.1
20220927063157 70 16 1.0 2.0 0.00 0.00 0.00 58 1017.1
20220927061158 71 16 0.0 1.0 0.00 0.00 0.00 56 1017.2
20220927060156 72 16 1.0 2.0 0.00 0.00 0.00 55 1017.2
20220927055156 73 16 0.0 2.0 0.00 0.00 0.00 54 1017.3
20220927054156 73 16 0.0 2.0 0.00 0.00 0.00 54 1017.3
20220927053155 74 16 0.0 2.0 0.00 0.00 0.00 53 1017.2
20220927052657 74 16 0.0 4.0 0.00 0.00 0.00 52 1017.1
20220927051154 74 0 1.0 5.0 0.00 0.00 0.00 52 1017.0
20220927050656 74 65 1.0 4.0 0.00 0.00 0.00 52 1017.0
20220927045655 75 17 2.0 5.0 0.00 0.00 0.00 52 1017.2
20220927044155 75 8 1.0 3.0 0.00 0.00 0.00 52 1017.2
20220927043153 76 31 1.0 3.0 0.00 0.00 0.00 51 1017.1
20220927042153 76 32 1.0 3.0 0.00 0.00 0.00 51 1017.2
20220927041655 77 21 1.0 3.0 0.00 0.00 0.00 51 1017.0
20220927040159 78 56 0.0 3.0 0.00 0.00 0.00 49 1016.9
20220927040154 77 21 2.0 5.0 0.00 0.00 0.00 50 1016.9
20220927034152 78 4 1.0 4.0 0.00 0.00 0.00 49 1016.8
20220927033654 78 32 1.0 3.0 0.00 0.00 0.00 48 1016.8
20220927032151 79 78 1.0 4.0 0.00 0.00 0.00 48 1016.7
20220927031151 79 32 1.0 3.0 0.00 0.00 0.00 47 1016.6
20220927030151 80 17 1.0 4.0 0.00 0.00 0.00 47 1016.5
20220927025151 80 11 1.0 4.0 0.00 0.00 0.00 47 1016.3
20220927024153 80 89 2.0 4.0 0.00 0.00 0.00 47 1016.1
20220927023151 81 63 0.0 4.0 0.00 0.00 0.00 47 1016.0
20220927022150 81 13 2.0 4.0 0.00 0.00 0.00 46 1016.0
20220927021150 82 34 1.0 3.0 0.00 0.00 0.00 47 1015.9
20220927020151 82 39 1.0 2.0 0.00 0.00 0.00 46 1015.6
20220927015150 82 16 1.0 3.0 0.00 0.00 0.00 46 1015.5
20220927014149 83 25 2.0 4.0 0.00 0.00 0.00 45 1015.3
20220927013651 83 17 1.0 4.0 0.00 0.00 0.00 46 1015.1
20220927012149 84 37 1.0 3.0 0.00 0.00 0.00 46 1014.9
20220927011150 84 35 1.0 4.0 0.00 0.00 0.00 46 1014.8
20220927010148 85 17 1.0 3.0 0.00 0.00 0.00 46 1014.6